Time;durP1;ratioP1;P1;durP2;ratioP2;P2;SDS_P1;SDS_P2;PMS_P1;PMS_P2;Temp;Humidity;BMP_temperature;BMP_pressure;BME280_temperature;BME280_humidity;BME280_pressure;Samples;Min_cycle;Max_cycle;Signal;HPM_P1;HPM_P2
2021/09/10 00:00:55;;;;;;;12.80;10.57;;;;;;;17.92;71.25;96218.31;5073645;28;20044;-75
2021/09/10 00:03:22;;;;;;;13.80;10.02;;;;;;;17.94;70.99;96220.69;5073655;28;20048;-74
2021/09/10 00:05:48;;;;;;;13.63;10.48;;;;;;;17.92;71.06;96218.31;5074110;28;20406;-75
2021/09/10 00:08:16;;;;;;;14.30;10.13;;;;;;;17.92;71.65;96223.03;5073535;28;20041;-75
2021/09/10 00:10:43;;;;;;;15.52;10.32;;;;;;;17.92;71.76;96229.34;5073765;28;20044;-75
2021/09/10 00:13:09;;;;;;;13.43;10.07;;;;;;;17.94;71.52;96227.00;5073604;28;20060;-74
2021/09/10 00:15:36;;;;;;;15.18;10.07;;;;;;;17.95;71.56;96225.03;5074007;28;20407;-75
2021/09/10 00:18:02;;;;;;;12.05;9.45;;;;;;;17.95;71.95;96225.03;5073298;28;20036;-75
2021/09/10 00:20:29;;;;;;;14.32;10.13;;;;;;;17.93;71.99;96224.63;5073942;28;20051;-74
2021/09/10 00:22:55;;;;;;;11.68;9.82;;;;;;;17.94;71.45;96221.50;5073754;28;20518;-74
2021/09/10 00:25:23;;;;;;;14.43;10.32;;;;;;;17.93;71.81;96222.66;5073286;28;20051;-75
2021/09/10 00:27:50;;;;;;;12.13;10.30;;;;;;;17.93;71.59;96219.13;5073672;28;20040;-75
2021/09/10 00:30:16;;;;;;;14.88;10.52;;;;;;;17.91;72.04;96225.00;5072679;28;20056;-75
2021/09/10 00:32:43;;;;;;;14.90;10.10;;;;;;;17.95;70.84;96222.28;5073129;28;20048;-75
2021/09/10 00:35:11;;;;;;;12.70;10.25;;;;;;;17.97;70.36;96220.78;5073079;28;20522;-75
2021/09/10 00:37:37;;;;;;;12.73;10.32;;;;;;;17.94;70.52;96226.22;5072477;28;20046;-75
2021/09/10 00:40:05;;;;;;;13.98;10.60;;;;;;;17.94;71.37;96221.50;5072334;28;20041;-74
2021/09/10 00:42:33;;;;;;;13.45;10.15;;;;;;;17.98;71.66;96211.34;5073461;28;20044;-75
2021/09/10 00:44:59;;;;;;;12.77;10.48;;;;;;;18.03;71.69;96206.69;5073309;28;20407;-75
2021/09/10 00:47:26;;;;;;;14.80;9.85;;;;;;;18.07;71.19;96213.06;5072733;28;20052;-74
2021/09/10 00:49:53;;;;;;;13.27;10.27;;;;;;;18.05;71.49;96218.13;5073461;28;20048;-75
2021/09/10 00:52:20;;;;;;;15.30;10.27;;;;;;;18.08;72.09;96217.41;5072599;28;20056;-75
2021/09/10 00:54:46;;;;;;;13.68;10.70;;;;;;;18.10;72.32;96220.56;5072985;28;20044;-75
2021/09/10 00:57:14;;;;;;;14.88;9.98;;;;;;;18.09;72.18;96227.25;5072704;28;20045;-75
2021/09/10 00:59:42;;;;;;;15.23;10.70;;;;;;;18.08;72.07;96233.94;5072983;28;20681;-75
2021/09/10 01:02:09;;;;;;;12.40;10.40;;;;;;;18.09;71.74;96238.25;5070240;28;20048;-75
2021/09/10 01:04:35;;;;;;;14.90;10.00;;;;;;;18.09;71.45;96238.25;5072469;28;20048;-75
2021/09/10 01:07:03;;;;;;;11.13;9.52;;;;;;;18.06;70.88;96237.03;5072535;28;20044;-75
2021/09/10 01:09:31;;;;;;;13.52;10.05;;;;;;;18.06;70.66;96233.47;5072877;28;20045;-74
2021/09/10 01:11:58;;;;;;;13.30;10.18;;;;;;;18.04;70.43;96242.13;5072762;28;20049;-75
2021/09/10 01:14:25;;;;;;;15.02;10.35;;;;;;;18.00;70.47;96236.56;5072400;28;20052;-75
2021/09/10 01:16:54;;;;;;;12.57;9.85;;;;;;;17.96;70.77;96232.97;5072759;28;20045;-75
2021/09/10 01:19:23;;;;;;;13.15;10.20;;;;;;;17.96;71.21;96232.97;5072367;28;20059;-75
2021/09/10 01:21:56;;;;;;;12.40;10.18;;;;;;;18.01;71.12;96234.63;5072571;28;20523;-74
2021/09/10 01:24:28;;;;;;;14.52;10.57;;;;;;;17.99;71.14;96229.44;5072345;28;20054;-75
2021/09/10 01:26:54;;;;;;;12.90;10.67;;;;;;;17.93;71.23;96230.94;5072555;28;20036;-75
2021/09/10 01:29:21;;;;;;;16.33;10.00;;;;;;;17.90;71.11;96226.16;5067478;28;20040;-74
2021/09/10 01:31:47;;;;;;;15.02;9.85;;;;;;;17.86;71.25;96233.59;5072444;28;20594;-75
2021/09/10 01:34:14;;;;;;;12.45;10.00;;;;;;;17.88;71.65;96236.75;5065801;28;20048;-75
2021/09/10 01:36:40;;;;;;;14.45;9.98;;;;;;;17.88;71.97;96236.75;5069050;28;20052;-74
2021/09/10 01:39:07;;;;;;;15.75;10.73;;;;;;;17.89;71.88;96235.59;5071895;28;20041;-75
2021/09/10 01:41:35;;;;;;;13.48;10.38;;;;;;;17.89;71.69;96243.84;5072287;28;20044;-75
2021/09/10 01:44:01;;;;;;;14.73;10.90;;;;;;;17.85;71.41;96237.47;5071865;28;20395;-74
2021/09/10 01:46:28;;;;;;;15.35;10.73;;;;;;;17.83;71.43;96242.56;5071514;28;20052;-75
2021/09/10 01:48:54;;;;;;;14.60;10.00;;;;;;;17.79;71.98;96241.69;5072180;28;20040;-75
2021/09/10 01:51:28;;;;;;;13.32;9.82;;;;;;;17.77;71.89;96248.75;5071308;28;20047;-75
2021/09/10 01:53:55;;;;;;;13.68;10.70;;;;;;;17.73;72.16;96243.19;5071551;28;20044;-75
2021/09/10 01:56:21;;;;;;;13.98;10.68;;;;;;;17.71;72.33;96239.97;5071376;28;20155;-75
2021/09/10 01:58:49;;;;;;;14.23;10.18;;;;;;;17.68;72.65;96240.69;5071871;28;20045;-74
2021/09/10 02:01:21;;;;;;;14.38;10.80;;;;;;;17.60;72.75;96239.00;5071366;28;20063;-74
2021/09/10 02:03:47;;;;;;;14.23;10.10;;;;;;;17.56;72.48;96243.63;5071827;28;20044;-74
2021/09/10 02:06:14;;;;;;;13.32;10.05;;;;;;;17.51;72.27;96239.22;5070794;28;20056;-74
2021/09/10 02:08:40;;;;;;;15.18;10.73;;;;;;;17.46;72.40;96234.81;5071743;28;20507;-73
2021/09/10 02:11:07;;;;;;;11.13;9.85;;;;;;;17.45;72.59;96244.22;5071169;28;20047;-74
2021/09/10 02:13:33;;;;;;;12.27;9.63;;;;;;;17.45;72.86;96243.44;5071687;28;20048;-74
2021/09/10 02:16:01;;;;;;;12.50;9.88;;;;;;;17.43;73.07;96248.50;5070850;28;20625;-74
2021/09/10 02:18:28;;;;;;;15.80;10.75;;;;;;;17.40;73.10;96243.75;5091575;28;20040;-74
2021/09/10 02:20:54;;;;;;;13.35;10.40;;;;;;;17.36;72.70;96245.63;5091687;28;20048;-74
2021/09/10 02:23:21;;;;;;;13.80;10.02;;;;;;;17.32;72.78;96251.03;5091149;28;20040;-75
2021/09/10 02:25:47;;;;;;;12.38;10.45;;;;;;;17.29;72.99;96254.53;5091592;28;20048;-74
2021/09/10 02:28:14;;;;;;;14.73;11.30;;;;;;;17.27;73.41;96254.09;5091189;28;20050;-74
2021/09/10 02:30:40;;;;;;;15.48;10.68;;;;;;;17.25;73.29;96256.44;5091735;28;20047;-74
2021/09/10 02:33:08;;;;;;;12.88;9.82;;;;;;;17.25;73.28;96261.13;5091339;28;20055;-74
2021/09/10 02:35:34;;;;;;;13.23;10.27;;;;;;;17.24;73.28;96260.34;5090993;28;20052;-76
2021/09/10 02:38:01;;;;;;;13.70;10.68;;;;;;;17.21;73.52;96266.56;5091492;28;20044;-75
2021/09/10 02:40:27;;;;;;;14.82;10.43;;;;;;;17.19;73.42;96263.38;5091507;28;20044;-74
2021/09/10 02:42:54;;;;;;;13.45;9.85;;;;;;;17.18;73.30;96256.28;5091369;28;20039;-74
2021/09/10 02:45:20;;;;;;;14.27;10.27;;;;;;;17.17;73.40;96260.19;5090694;28;20051;-74
2021/09/10 02:47:47;;;;;;;14.95;10.10;;;;;;;17.12;73.30;96257.72;5091414;28;20051;-74
2021/09/10 02:50:15;;;;;;;12.85;10.02;;;;;;;17.06;73.27;96264.69;5090905;28;20072;-74
2021/09/10 02:52:42;;;;;;;13.57;10.07;;;;;;;17.06;73.55;96259.19;5091361;28;20112;-74
2021/09/10 02:55:09;;;;;;;13.30;9.85;;;;;;;17.07;73.58;96261.59;5090770;28;20040;-76
2021/09/10 02:57:36;;;;;;;11.57;9.27;;;;;;;17.07;73.53;96256.09;5091190;28;20040;-74
2021/09/10 03:00:05;;;;;;;11.27;9.65;;;;;;;17.05;73.56;96257.59;5090765;28;20040;-75
2021/09/10 03:02:31;;;;;;;15.35;9.93;;;;;;;17.02;73.51;96252.78;5091210;28;20040;-74
2021/09/10 03:04:58;;;;;;;14.93;9.98;;;;;;;17.04;73.73;96250.50;5091148;28;20044;-74
2021/09/10 03:07:25;;;;;;;16.77;10.40;;;;;;;17.05;73.79;96244.63;5090240;28;20051;-75
2021/09/10 03:09:52;;;;;;;10.88;9.57;;;;;;;17.06;73.87;96242.66;5091117;28;20563;-74
2021/09/10 03:12:18;;;;;;;14.18;10.07;;;;;;;17.02;73.77;96233.53;5090677;28;20048;-74
2021/09/10 03:14:45;;;;;;;14.30;10.38;;;;;;;16.99;73.89;96231.53;5091184;28;20044;-74
2021/09/10 03:17:11;;;;;;;12.85;9.88;;;;;;;16.97;73.89;96231.91;5090702;28;20055;-75
2021/09/10 03:19:39;;;;;;;11.32;9.55;;;;;;;16.97;73.77;96240.16;5091182;28;20044;-75
2021/09/10 03:22:06;;;;;;;13.55;9.77;;;;;;;16.95;73.98;96235.00;5090500;28;20047;-75
2021/09/10 03:24:34;;;;;;;12.82;10.48;;;;;;;16.95;74.27;96228.69;5091134;28;20055;-74
2021/09/10 03:27:01;;;;;;;12.57;10.15;;;;;;;16.91;74.37;96231.41;5091270;28;20044;-73
2021/09/10 03:29:27;;;;;;;14.20;10.23;;;;;;;16.91;74.63;96225.91;5094806;28;20384;-75
2021/09/10 03:31:54;;;;;;;17.48;9.90;;;;;;;16.91;74.84;96231.41;5095127;28;20050;-73
2021/09/10 03:34:21;;;;;;;12.18;9.90;;;;;;;16.91;74.85;96230.56;5094264;28;20398;-74
2021/09/10 03:36:48;;;;;;;13.80;9.85;;;;;;;16.92;74.67;96232.97;5094700;28;20040;-74
2021/09/10 03:39:14;;;;;;;11.98;9.60;;;;;;;16.91;74.30;96234.16;5094594;28;20052;-74
2021/09/10 03:41:42;;;;;;;17.50;10.98;;;;;;;16.90;74.35;96224.28;5094999;28;20044;-74
2021/09/10 03:44:08;;;;;;;14.55;10.93;;;;;;;16.85;74.76;96224.56;5094519;28;20062;-75
2021/09/10 03:46:35;;;;;;;15.50;9.85;;;;;;;16.87;74.43;96230.53;5094656;28;20491;-73
2021/09/10 03:49:01;;;;;;;13.68;10.02;;;;;;;16.89;73.92;96217.19;5094350;28;20498;-73
2021/09/10 03:51:28;;;;;;;12.52;9.60;;;;;;;16.87;73.96;96216.78;5094866;28;20040;-73
2021/09/10 03:53:54;;;;;;;13.30;10.13;;;;;;;16.86;73.93;96215.19;5094480;28;20048;-75
2021/09/10 03:56:21;;;;;;;12.02;10.05;;;;;;;16.83;73.89;96218.66;5094110;28;20048;-73
2021/09/10 03:58:49;;;;;;;10.88;9.18;;;;;;;16.78;73.66;96209.88;5094555;28;20048;-73
2021/09/10 04:01:15;;;;;;;11.70;9.27;;;;;;;16.74;74.15;96207.06;5093959;28;20048;-75
2021/09/10 04:03:42;;;;;;;14.15;10.13;;;;;;;16.66;74.42;96202.56;5094388;28;20051;-75
2021/09/10 04:06:09;;;;;;;15.45;10.98;;;;;;;16.63;74.19;96203.25;5093466;28;20048;-75
2021/09/10 04:08:36;;;;;;;15.05;10.02;;;;;;;16.60;74.18;96209.47;5094252;28;20044;-75
2021/09/10 04:11:02;;;;;;;14.98;11.30;;;;;;;16.53;74.36;96209.31;5093862;28;20044;-75
2021/09/10 04:13:29;;;;;;;15.25;11.23;;;;;;;16.42;74.80;96212.63;5094202;28;20048;-75
2021/09/10 04:15:57;;;;;;;12.52;10.60;;;;;;;16.39;75.38;96215.28;5094298;28;20040;-75
2021/09/10 04:18:23;;;;;;;17.85;12.02;;;;;;;16.42;75.68;96217.34;5093808;28;20514;-75
2021/09/10 04:20:50;;;;;;;14.65;10.95;;;;;;;16.43;75.48;96216.97;5094132;28;20055;-75
2021/09/10 04:23:17;;;;;;;14.10;10.98;;;;;;;16.37;75.88;96218.41;5093578;28;20506;-75
2021/09/10 04:25:43;;;;;;;14.85;11.43;;;;;;;16.30;75.71;96221.00;5094231;28;20040;-74
2021/09/10 04:28:10;;;;;;;18.23;10.90;;;;;;;16.26;75.84;96217.38;5093486;28;20044;-73
2021/09/10 04:30:37;;;;;;;15.68;11.20;;;;;;;16.25;76.60;96218.53;5093844;28;20048;-74
2021/09/10 04:33:04;;;;;;;16.55;11.35;;;;;;;16.24;76.79;96225.19;5093389;28;20502;-74
2021/09/10 04:35:31;;;;;;;16.02;11.32;;;;;;;16.19;76.20;96222.72;5093444;28;20397;-73
2021/09/10 04:37:57;;;;;;;15.95;11.25;;;;;;;16.16;76.55;96226.16;5093706;28;20044;-74
2021/09/10 04:40:24;;;;;;;14.40;10.02;;;;;;;16.16;76.63;96217.94;5092294;27;20198;-73
2021/09/10 04:42:51;;;;;;;15.55;11.30;;;;;;;16.15;76.61;96227.31;5093475;28;20040;-74
2021/09/10 04:45:17;;;;;;;14.50;10.68;;;;;;;16.12;76.61;96217.84;5093270;28;20040;-73
2021/09/10 04:47:44;;;;;;;17.45;11.52;;;;;;;16.13;76.23;96235.13;5093284;28;20043;-73
2021/09/10 04:50:12;;;;;;;15.48;10.75;;;;;;;16.11;76.64;96232.72;5093189;28;20047;-74
2021/09/10 04:52:38;;;;;;;12.88;10.60;;;;;;;16.10;76.60;96233.09;5093645;28;20046;-74
2021/09/10 04:55:06;;;;;;;15.07;10.75;;;;;;;16.10;76.42;96233.09;5092855;28;20043;-73
2021/09/10 04:57:33;;;;;;;18.77;11.20;;;;;;;16.06;76.54;96234.94;5093313;28;20037;-73
2021/09/10 05:00:00;;;;;;;17.83;11.32;;;;;;;16.06;76.45;96234.94;5093187;28;20043;-74
2021/09/10 05:02:26;;;;;;;15.75;10.55;;;;;;;16.03;76.59;96238.44;5090952;28;20177;-74
2021/09/10 05:04:53;;;;;;;17.98;10.50;;;;;;;16.00;76.31;96239.13;5093044;28;20047;-73
2021/09/10 05:07:21;;;;;;;14.02;11.38;;;;;;;16.00;76.29;96230.88;5092431;28;20503;-74
2021/09/10 05:09:47;;;;;;;14.70;10.80;;;;;;;16.01;76.50;96232.47;5093245;28;20392;-74
2021/09/10 05:12:15;;;;;;;14.88;10.55;;;;;;;15.97;76.02;96237.09;5092679;28;20051;-73
2021/09/10 05:14:41;;;;;;;12.95;10.70;;;;;;;15.96;76.44;96230.00;5093197;28;20075;-73
2021/09/10 05:17:10;;;;;;;15.25;10.70;;;;;;;15.96;76.64;96235.50;5092713;28;20592;-73
2021/09/10 05:19:37;;;;;;;19.73;10.35;;;;;;;16.01;76.75;96236.00;5092957;28;20506;-74
2021/09/10 05:22:04;;;;;;;13.73;10.98;;;;;;;16.02;76.64;96237.59;5092765;28;20119;-74
2021/09/10 05:24:31;;;;;;;15.82;10.75;;;;;;;16.06;76.70;96234.94;5092792;28;20048;-73
2021/09/10 05:26:58;;;;;;;13.85;10.55;;;;;;;16.10;77.08;96238.59;5092594;28;20044;-74
2021/09/10 05:29:24;;;;;;;14.65;10.63;;;;;;;16.15;76.91;96243.81;5092405;28;20039;-75
2021/09/10 05:31:51;;;;;;;17.40;10.50;;;;;;;16.25;76.58;96243.25;5092719;28;20046;-73
2021/09/10 05:34:17;;;;;;;15.35;10.55;;;;;;;16.27;76.15;96246.44;5090968;28;20051;-74
2021/09/10 05:36:44;;;;;;;16.98;10.10;;;;;;;16.28;76.45;96244.50;5092479;28;20055;-73
2021/09/10 05:39:10;;;;;;;12.45;9.90;;;;;;;16.28;76.44;96248.03;5092186;28;20056;-74
2021/09/10 05:41:38;;;;;;;14.25;10.68;;;;;;;16.33;76.71;96245.00;5092727;28;20044;-73
2021/09/10 05:44:05;;;;;;;17.70;11.13;;;;;;;16.40;76.73;96250.69;5092345;28;20487;-75
2021/09/10 05:46:31;;;;;;;14.38;10.60;;;;;;;16.48;76.53;96250.84;5092582;28;20036;-74
2021/09/10 05:48:58;;;;;;;14.88;10.25;;;;;;;16.55;76.80;96250.97;5092329;28;20491;-74
2021/09/10 05:51:24;;;;;;;13.05;9.82;;;;;;;16.63;76.14;96247.25;5091933;28;20044;-73
2021/09/10 05:53:51;;;;;;;12.43;9.27;;;;;;;16.69;76.20;96245.81;5092222;28;20044;-74
2021/09/10 05:56:17;;;;;;;14.55;9.75;;;;;;;16.77;76.26;96242.09;5091294;28;20121;-74
2021/09/10 05:58:45;;;;;;;15.50;9.77;;;;;;;16.85;74.07;96254.81;5089907;28;20040;-75
2021/09/10 06:01:11;;;;;;;11.25;9.15;;;;;;;16.89;73.63;96249.41;5088910;28;20052;-74
2021/09/10 06:03:38;;;;;;;11.57;9.32;;;;;;;16.88;73.11;96242.31;5090929;28;20050;-74
2021/09/10 06:06:07;;;;;;;14.57;9.05;;;;;;;16.93;73.67;96251.06;5091512;28;20522;-73
2021/09/10 06:08:34;;;;;;;15.13;9.52;;;;;;;16.91;73.22;96256.16;5091871;28;20055;-74
2021/09/10 06:11:00;;;;;;;13.63;10.07;;;;;;;16.97;73.83;96253.13;5091848;28;20047;-73
2021/09/10 06:13:27;;;;;;;14.15;9.85;;;;;;;17.01;73.53;96251.22;5091713;28;20522;-73
2021/09/10 06:15:54;;;;;;;16.77;10.10;;;;;;;17.05;73.28;96252.09;5091866;28;20423;-73
2021/09/10 06:18:21;;;;;;;13.18;9.23;;;;;;;17.09;73.86;96252.97;5091478;28;20048;-73
2021/09/10 06:20:47;;;;;;;16.23;11.00;;;;;;;17.13;74.17;96259.34;5091483;28;20044;-74
2021/09/10 06:23:14;;;;;;;13.43;9.73;;;;;;;17.21;74.63;96266.56;5090012;28;20048;-74
2021/09/10 06:25:40;;;;;;;16.75;10.48;;;;;;;17.32;73.41;96267.56;5090752;28;20044;-73
2021/09/10 06:28:08;;;;;;;14.07;10.43;;;;;;;17.38;73.28;96268.88;5091290;28;20036;-73
2021/09/10 06:30:35;;;;;;;15.82;11.02;;;;;;;17.43;73.13;96263.06;5091528;28;20040;-73
2021/09/10 06:33:02;;;;;;;22.40;10.57;;;;;;;17.52;73.90;96262.03;5091319;28;20040;-74
2021/09/10 06:35:29;;;;;;;12.55;10.02;;;;;;;17.61;73.14;96259.84;5091424;28;20040;-73
2021/09/10 06:37:55;;;;;;;11.70;9.55;;;;;;;17.63;73.00;96261.06;5091228;28;20372;-73
2021/09/10 06:40:22;;;;;;;17.08;10.20;;;;;;;17.74;72.90;96266.78;5090963;28;20070;-74
2021/09/10 06:42:50;;;;;;;14.93;10.75;;;;;;;17.83;72.15;96270.09;5091601;28;20051;-74
2021/09/10 06:45:16;;;;;;;13.23;10.25;;;;;;;17.91;71.88;96263.56;5091066;28;20047;-73
2021/09/10 06:47:43;;;;;;;15.32;10.30;;;;;;;18.05;71.75;96264.97;5091270;28;20047;-74
2021/09/10 06:50:11;;;;;;;14.00;10.20;;;;;;;18.13;70.96;96263.94;5090895;28;20040;-73
2021/09/10 06:52:40;;;;;;;17.40;10.57;;;;;;;18.18;70.76;96264.41;5091425;28;20051;-73
2021/09/10 06:55:07;;;;;;;14.35;10.73;;;;;;;18.26;69.22;96263.34;5090608;28;20040;-74
2021/09/10 06:57:34;;;;;;;14.63;10.43;;;;;;;18.32;69.59;96269.34;5091398;28;20044;-73
2021/09/10 07:00:01;;;;;;;16.90;10.00;;;;;;;18.42;69.15;96265.94;5091272;28;20372;-73
2021/09/10 07:02:27;;;;;;;17.33;11.00;;;;;;;18.54;69.63;96264.97;5090703;28;20047;-73
2021/09/10 07:04:54;;;;;;;16.13;10.98;;;;;;;18.62;67.86;96268.59;5091462;28;20059;-73
2021/09/10 07:07:21;;;;;;;18.80;10.57;;;;;;;18.71;67.90;96271.91;5090842;28;20051;-73
2021/09/10 07:09:48;;;;;;;15.10;9.90;;;;;;;18.76;68.29;96277.13;5091281;28;20036;-73
2021/09/10 07:12:15;;;;;;;14.30;10.88;;;;;;;18.90;68.11;96271.81;5090873;28;20071;-74
2021/09/10 07:14:41;;;;;;;13.52;10.07;;;;;;;19.11;67.05;96274.03;5091247;28;20044;-73
2021/09/10 07:17:08;;;;;;;16.65;9.82;;;;;;;19.68;65.55;96283.03;5090601;28;20032;-73
2021/09/10 07:19:35;;;;;;;12.02;9.65;;;;;;;20.80;62.06;96291.06;5091202;28;20040;-73
2021/09/10 07:22:01;;;;;;;11.95;9.57;;;;;;;21.94;59.82;96294.34;5090576;28;20507;-74
2021/09/10 07:24:29;;;;;;;12.77;9.25;;;;;;;22.88;56.24;96293.19;5090956;28;20052;-74
2021/09/10 07:26:56;;;;;;;14.68;8.50;;;;;;;23.43;51.67;96289.84;5091046;28;20047;-73
2021/09/10 07:29:23;;;;;;;11.73;7.60;;;;;;;23.69;51.10;96291.34;5090556;28;20039;-74
2021/09/10 07:31:50;;;;;;;10.85;8.02;;;;;;;23.99;48.25;96290.75;5090852;28;20051;-73
2021/09/10 07:34:17;;;;;;;11.45;8.40;;;;;;;24.54;48.95;96281.66;5087740;28;20048;-74
2021/09/10 07:36:48;;;;;;;11.82;7.82;;;;;;;25.08;48.50;96284.72;5089550;28;20048;-74
2021/09/10 07:39:15;;;;;;;13.10;7.80;;;;;;;25.69;47.88;96282.00;5089902;28;20051;-75
2021/09/10 07:41:43;;;;;;;11.25;7.60;;;;;;;25.79;43.80;96287.84;5090773;28;20044;-74
2021/09/10 07:44:09;;;;;;;11.25;7.80;;;;;;;26.02;44.58;96291.53;5089406;28;20051;-74
2021/09/10 07:46:36;;;;;;;11.25;8.85;;;;;;;26.16;45.12;96289.75;5090755;28;20043;-74
2021/09/10 07:49:02;;;;;;;12.75;7.88;;;;;;;26.51;44.11;96293.97;5090225;28;20047;-74
2021/09/10 07:51:28;;;;;;;10.57;6.88;;;;;;;27.06;44.29;96285.03;5088323;28;20040;-74
2021/09/10 07:53:55;;;;;;;11.73;6.80;;;;;;;27.41;42.07;96284.81;5089184;28;20043;-74
2021/09/10 07:56:21;;;;;;;8.50;7.10;;;;;;;27.68;40.98;96285.44;5089998;28;20082;-73
2021/09/10 07:58:49;;;;;;;10.88;7.30;;;;;;;27.87;40.30;96285.84;5090450;28;20044;-74
2021/09/10 08:01:16;;;;;;;9.68;7.07;;;;;;;28.02;39.63;96281.53;5090109;28;20127;-74
2021/09/10 08:03:42;;;;;;;10.98;6.60;;;;;;;28.16;39.73;96289.59;5090588;28;20403;-74
2021/09/10 08:06:09;;;;;;;10.13;6.57;;;;;;;28.28;38.92;96294.50;5090077;28;20058;-74
2021/09/10 08:08:35;;;;;;;8.23;6.78;;;;;;;28.46;39.08;96288.53;5090387;28;20051;-74
2021/09/10 08:11:02;;;;;;;9.85;6.80;;;;;;;28.43;39.06;96283.00;5089933;28;20040;-74
2021/09/10 08:13:28;;;;;;;13.73;7.07;;;;;;;28.56;40.34;96286.69;5090228;28;20044;-74
2021/09/10 08:15:56;;;;;;;8.77;6.70;;;;;;;28.87;38.08;96298.31;5093693;28;20427;-74
2021/09/10 08:18:23;;;;;;;11.40;7.05;;;;;;;28.89;38.35;96292.25;5093616;28;20050;-74
2021/09/10 08:20:49;;;;;;;11.25;6.95;;;;;;;29.08;39.52;96299.81;5092692;28;20495;-74
2021/09/10 08:23:16;;;;;;;8.82;6.82;;;;;;;29.28;39.68;96297.63;5093516;28;20046;-75
2021/09/10 08:25:42;;;;;;;12.00;6.80;;;;;;;29.57;37.71;96294.84;5094008;28;20078;-74
2021/09/10 08:28:09;;;;;;;9.75;6.75;;;;;;;29.45;37.17;96294.78;5093435;28;20048;-74
2021/09/10 08:30:35;;;;;;;10.25;7.30;;;;;;;29.61;38.48;96297.56;5093930;28;20044;-74
2021/09/10 08:33:09;;;;;;;11.23;7.25;;;;;;;29.79;37.58;96302.63;5093327;28;20042;-74
2021/09/10 08:35:36;;;;;;;11.60;7.50;;;;;;;29.67;36.75;96301.38;5093755;28;20047;-73
2021/09/10 08:38:03;;;;;;;12.93;7.53;;;;;;;29.81;36.44;96300.16;5093200;28;20518;-74
2021/09/10 08:40:30;;;;;;;10.52;6.30;;;;;;;30.09;36.91;96304.94;5093617;28;20047;-74
2021/09/10 08:42:56;;;;;;;11.68;6.95;;;;;;;30.20;34.71;96310.25;5093683;28;20704;-74
2021/09/10 08:45:26;;;;;;;10.18;7.00;;;;;;;30.30;34.67;96311.16;5093085;28;20051;-74
2021/09/10 08:47:54;;;;;;;9.70;7.47;;;;;;;30.09;34.16;96326.59;5093566;28;20051;-74
2021/09/10 08:50:23;;;;;;;7.47;6.55;;;;;;;30.10;35.13;96325.38;5092772;28;20056;-74
2021/09/10 08:52:49;;;;;;;9.35;7.45;;;;;;;29.85;35.46;96312.84;5092810;28;20483;-73
2021/09/10 08:55:16;;;;;;;8.95;6.53;;;;;;;29.97;35.48;96321.78;5092770;28;20514;-73
2021/09/10 08:57:49;;;;;;;10.75;7.45;;;;;;;29.97;36.34;96318.97;5093429;28;20415;-74
2021/09/10 09:00:17;;;;;;;11.50;6.70;;;;;;;30.33;37.32;96308.25;5092515;28;20040;-76
2021/09/10 09:02:57;;;;;;;8.70;6.63;;;;;;;30.57;35.59;96311.47;5090472;28;20048;-76
2021/09/10 09:05:26;;;;;;;10.40;6.88;;;;;;;30.09;35.00;96321.00;5092811;28;20560;-79
2021/09/10 09:08:08;;;;;;;12.32;7.72;;;;;;;30.25;35.54;96322.94;5092740;28;20059;-79
2021/09/10 09:10:57;;;;;;;12.18;7.78;;;;;;;30.32;35.71;96317.88;5093346;28;20047;-78
2021/09/10 09:13:27;;;;;;;9.73;6.75;;;;;;;30.52;36.22;96320.47;5093058;28;20044;-78
2021/09/10 09:16:12;;;;;;;9.57;6.80;;;;;;;30.70;36.27;96311.50;5093119;28;20051;-76
2021/09/10 09:18:40;;;;;;;10.57;6.43;;;;;;;30.76;33.73;96312.50;5092917;28;20496;-77
2021/09/10 09:21:08;;;;;;;8.07;6.75;;;;;;;30.75;34.81;96310.94;5091787;28;20044;-76
2021/09/10 09:23:35;;;;;;;9.35;6.65;;;;;;;30.57;34.22;96313.50;5092917;28;20040;-77
2021/09/10 09:26:02;;;;;;;11.10;6.57;;;;;;;30.46;35.03;96305.41;5092183;28;20068;-76
2021/09/10 09:28:30;;;;;;;9.75;6.63;;;;;;;30.54;36.08;96305.94;5092154;28;20419;-76
2021/09/10 09:30:59;;;;;;;9.95;6.03;;;;;;;30.53;34.63;96304.38;5091973;28;20048;-76
2021/09/10 09:33:27;;;;;;;8.98;6.22;;;;;;;30.13;35.81;96299.25;5091998;28;20070;-77
2021/09/10 09:35:57;;;;;;;9.70;6.65;;;;;;;29.93;35.53;96307.84;5092589;28;20044;-76
2021/09/10 09:38:27;;;;;;;12.05;6.72;;;;;;;29.82;35.81;96301.75;5090055;28;20119;-76
2021/09/10 09:40:57;;;;;;;10.38;5.88;;;;;;;29.66;38.40;96299.81;5092408;28;20384;-76
2021/09/10 09:43:28;;;;;;;9.88;6.95;;;;;;;29.44;37.55;96304.41;5091912;28;20486;-76
2021/09/10 09:45:55;;;;;;;10.45;7.45;;;;;;;29.03;39.16;96303.91;5092535;28;20051;-77
2021/09/10 09:48:24;;;;;;;14.25;6.97;;;;;;;28.66;39.79;96296.84;5091945;28;20056;-77
2021/09/10 09:50:52;;;;;;;10.15;7.05;;;;;;;28.38;41.99;96297.53;5092281;28;20040;-77
2021/09/10 09:53:19;;;;;;;11.25;7.40;;;;;;;28.05;38.79;96298.25;5091883;28;20127;-78
2021/09/10 09:55:48;;;;;;;10.85;7.90;;;;;;;27.64;41.94;96293.09;5091873;28;20055;-78
2021/09/10 09:58:15;;;;;;;9.77;6.93;;;;;;;27.44;43.77;96292.31;5091734;28;20052;-77
2021/09/10 10:00:43;;;;;;;8.35;6.95;;;;;;;27.44;44.40;96286.72;5092153;28;20380;-78
2021/09/10 10:03:10;;;;;;;13.35;6.93;;;;;;;27.44;43.83;96286.72;5091661;28;20044;-77
2021/09/10 10:05:58;;;;;;;10.07;7.05;;;;;;;27.35;44.24;96289.31;5092111;28;20479;-77
2021/09/10 10:08:29;;;;;;;14.43;7.25;;;;;;;27.33;43.05;96291.75;5077893;28;20044;-78
2021/09/10 10:11:07;;;;;;;11.60;7.63;;;;;;;27.27;42.48;96294.25;5091932;28;20044;-78
2021/09/10 10:13:35;;;;;;;10.65;7.68;;;;;;;27.14;45.46;96293.31;5091566;28;20044;-78
2021/09/10 10:16:02;;;;;;;13.35;7.32;;;;;;;27.19;42.34;96292.81;5091422;28;20089;-77
2021/09/10 10:18:37;;;;;;;10.80;7.10;;;;;;;27.22;45.38;96281.56;5091662;28;20043;-78
2021/09/10 10:21:04;;;;;;;10.10;7.10;;;;;;;27.14;44.67;96285.72;5088830;28;20127;-77
2021/09/10 10:23:50;;;;;;;10.50;7.00;;;;;;;27.12;45.05;96282.56;5090804;28;20044;-77
2021/09/10 10:26:19;;;;;;;11.48;7.65;;;;;;;27.14;43.90;96282.91;5091209;28;20040;-78
2021/09/10 10:28:47;;;;;;;11.05;7.30;;;;;;;27.10;44.69;96273.81;5091358;28;20047;-78
2021/09/10 10:31:15;;;;;;;14.40;7.38;;;;;;;27.04;44.39;96276.31;5091239;28;20048;-78
2021/09/10 10:33:49;;;;;;;10.32;6.85;;;;;;;26.88;45.78;96272.59;5091450;28;20388;-78
2021/09/10 10:36:37;;;;;;;11.73;7.50;;;;;;;26.67;45.00;96277.34;5091218;28;20506;-77
2021/09/10 10:39:26;;;;;;;12.18;7.63;;;;;;;26.52;46.20;96273.25;5085178;28;20036;-77
2021/09/10 10:41:56;;;;;;;15.80;7.45;;;;;;;26.41;44.42;96272.59;5091373;28;20592;-78
2021/09/10 10:44:48;;;;;;;13.38;7.55;;;;;;;26.32;47.00;96266.78;5090883;28;20433;-77
2021/09/10 10:47:16;;;;;;;11.90;7.38;;;;;;;26.24;47.47;96275.25;5090874;28;20508;-78
2021/09/10 10:49:44;;;;;;;11.63;7.00;;;;;;;26.14;48.19;96270.59;5091122;28;20122;-77
2021/09/10 10:52:29;;;;;;;10.60;7.43;;;;;;;26.02;47.64;96263.63;5090622;28;20037;-77
2021/09/10 10:55:28;;;;;;;9.80;7.22;;;;;;;25.89;46.84;96254.22;5090043;28;20040;-78
2021/09/10 10:58:20;;;;;;;12.35;7.72;;;;;;;25.90;48.58;96249.47;5083845;28;20040;-77
2021/09/10 11:00:48;;;;;;;10.45;7.05;;;;;;;25.91;47.49;96245.47;5090999;28;20036;-78
2021/09/10 11:03:49;;;;;;;11.98;6.78;;;;;;;25.85;48.70;96249.94;5090663;28;20047;-78
2021/09/10 11:06:37;;;;;;;13.15;8.52;;;;;;;25.77;48.25;96252.03;5090183;28;20130;-78
2021/09/10 11:09:08;;;;;;;15.38;8.68;;;;;;;25.60;47.94;96251.03;5090041;28;20051;-78
2021/09/10 11:11:34;;;;;;;12.20;7.97;;;;;;;25.61;49.58;96241.47;5091147;28;20070;-78
2021/09/10 11:14:07;;;;;;;11.23;7.88;;;;;;;25.61;48.46;96244.25;5090743;28;20047;-78
2021/09/10 11:16:33;;;;;;;11.85;8.30;;;;;;;25.56;48.02;96233.56;5090991;28;20036;-79
2021/09/10 11:18:59;;;;;;;9.98;7.20;;;;;;;25.61;48.70;96244.25;5090735;28;20044;-77
2021/09/10 11:21:28;;;;;;;11.30;7.75;;;;;;;25.61;48.39;96238.69;5090259;28;20036;-77
2021/09/10 11:23:55;;;;;;;12.77;8.02;;;;;;;25.64;48.44;96240.63;5090935;28;20044;-77
2021/09/10 11:26:21;;;;;;;11.85;7.57;;;;;;;25.64;48.89;96240.63;5090347;28;20056;-78